Time;durP1;ratioP1;P1;durP2;ratioP2;P2;SDS_P1;SDS_P2;PMS_P1;PMS_P2;Temp;Humidity;BMP_temperature;BMP_pressure;BME280_temperature;BME280_humidity;BME280_pressure;Samples;Min_cycle;Max_cycle;Signal;HPM_P1;HPM_P2
2021/08/24 00:00:44;;;;;;;6.53;1.83;;;;;;;12.58;81.93;102549.72;5059557;28;20040;-48
2021/08/24 00:03:09;;;;;;;2.28;1.13;;;;;;;12.55;81.86;102552.81;5060952;28;20036;-50
2021/08/24 00:05:36;;;;;;;5.15;1.73;;;;;;;12.54;82.24;102556.53;5061119;28;20029;-49
2021/08/24 00:08:03;;;;;;;3.85;1.42;;;;;;;12.52;82.00;102555.94;5059689;28;20028;-48
2021/08/24 00:10:38;;;;;;;3.25;1.38;;;;;;;12.49;81.97;102559.06;5044895;28;20067;-48
2021/08/24 00:13:04;;;;;;;2.90;1.38;;;;;;;12.46;82.01;102563.00;5060515;28;20032;-50
2021/08/24 00:15:30;;;;;;;4.93;1.60;;;;;;;12.44;82.77;102558.91;5061440;28;20036;-48
2021/08/24 00:17:56;;;;;;;5.32;1.30;;;;;;;12.45;82.44;102560.53;5061122;28;20505;-48
2021/08/24 00:20:22;;;;;;;3.33;1.48;;;;;;;12.41;83.34;102554.78;5060652;28;20043;-48
2021/08/24 00:22:48;;;;;;;3.70;1.45;;;;;;;12.39;82.79;102563.06;5058565;28;20036;-49
2021/08/24 00:25:14;;;;;;;3.30;1.35;;;;;;;12.37;83.04;102565.13;5059266;28;20394;-49
2021/08/24 00:27:40;;;;;;;4.13;1.23;;;;;;;12.36;82.77;102566.16;5062083;28;20035;-48
2021/08/24 00:30:07;;;;;;;3.13;1.48;;;;;;;12.34;83.01;102562.03;5057168;28;20658;-49
2021/08/24 00:32:33;;;;;;;4.10;1.50;;;;;;;12.33;82.86;102569.28;5061640;28;20398;-49
2021/08/24 00:34:59;;;;;;;5.00;1.50;;;;;;;12.23;83.59;102566.25;5058582;28;20283;-48
2021/08/24 00:37:25;;;;;;;3.08;1.80;;;;;;;12.25;83.62;102560.66;5061548;28;20040;-48
2021/08/24 00:39:51;;;;;;;3.63;1.70;;;;;;;12.25;83.45;102569.53;5062514;28;20415;-49
2021/08/24 00:42:18;;;;;;;2.75;1.38;;;;;;;12.25;83.46;102571.41;5060449;28;20126;-48
2021/08/24 00:44:48;;;;;;;3.70;1.55;;;;;;;12.19;83.31;102566.88;5062224;28;20489;-48
2021/08/24 00:47:18;;;;;;;5.22;1.40;;;;;;;12.21;83.38;102565.66;5061314;28;20139;-48
2021/08/24 00:49:44;;;;;;;5.70;1.55;;;;;;;12.16;83.57;102576.19;5060148;28;20028;-48
2021/08/24 00:52:17;;;;;;;3.80;1.13;;;;;;;12.14;83.59;102574.75;5060141;28;20415;-49
2021/08/24 00:54:43;;;;;;;3.95;1.20;;;;;;;12.14;83.72;102574.75;5059899;28;20025;-48
2021/08/24 00:57:16;;;;;;;5.57;1.98;;;;;;;12.10;83.74;102585.13;5061239;28;20272;-50
2021/08/24 00:59:42;;;;;;;4.47;1.55;;;;;;;12.08;83.95;102584.50;5059664;28;20038;-50
2021/08/24 01:02:09;;;;;;;3.20;1.20;;;;;;;12.07;83.92;102591.75;5059981;28;20222;-48
2021/08/24 01:04:36;;;;;;;3.45;1.45;;;;;;;12.06;84.35;102591.97;5055946;28;20030;-49
2021/08/24 01:07:12;;;;;;;3.28;1.40;;;;;;;11.99;84.17;102589.28;5059612;28;20070;-50
2021/08/24 01:10:09;;;;;;;4.53;1.60;;;;;;;11.97;84.26;102595.91;5060590;28;20035;-49
2021/08/24 01:12:45;;;;;;;2.55;1.00;;;;;;;11.96;84.80;102588.88;5059742;28;20466;-49
2021/08/24 01:15:38;;;;;;;3.17;1.40;;;;;;;11.92;84.47;102599.22;5060276;28;20029;-48
2021/08/24 01:18:26;;;;;;;5.47;1.75;;;;;;;11.89;84.59;102596.16;5060145;28;20051;-48
2021/08/24 01:21:13;;;;;;;4.70;1.45;;;;;;;11.84;84.92;102598.63;5058082;28;20836;-49
2021/08/24 01:23:48;;;;;;;7.80;1.30;;;;;;;11.85;84.58;102602.97;5060614;28;20037;-49
2021/08/24 01:26:43;;;;;;;2.97;1.58;;;;;;;11.80;84.81;102600.91;5062357;28;20043;-48
2021/08/24 01:29:11;;;;;;;;;;;;;;;11.69;84.97;102609.59;5060747;28;20032;-49
2021/08/24 01:32:10;;;;;;;4.60;1.58;;;;;;;11.71;84.67;102603.00;5060067;28;19966;-48
2021/08/24 01:34:52;;;;;;;4.72;1.40;;;;;;;11.67;85.26;102612.50;5058805;28;20150;-51
2021/08/24 01:37:28;;;;;;;4.13;1.40;;;;;;;11.71;84.88;102610.22;5059025;28;20044;-50
2021/08/24 01:40:01;;;;;;;3.58;1.17;;;;;;;11.69;85.48;102606.94;5060847;28;20031;-49
2021/08/24 01:42:31;;;;;;;1.80;1.27;;;;;;;11.66;85.33;102610.00;5043473;28;20036;-49
2021/08/24 01:45:05;;;;;;;4.10;1.60;;;;;;;11.65;85.57;102605.66;5043021;28;20386;-48
2021/08/24 01:47:46;;;;;;;3.38;1.45;;;;;;;11.61;85.75;102612.50;5059547;28;20497;-48
2021/08/24 01:50:28;;;;;;;6.53;1.73;;;;;;;11.63;85.42;102610.44;5060310;28;20085;-49
2021/08/24 01:53:12;;;;;;;2.92;1.23;;;;;;;11.58;85.87;102600.31;5043216;28;20064;-48
2021/08/24 01:55:44;;;;;;;2.70;1.65;;;;;;;11.54;86.38;102615.19;5061732;28;20103;-49
2021/08/24 01:58:14;;;;;;;5.18;1.98;;;;;;;11.55;86.56;102614.16;5057872;28;20188;-48
2021/08/24 02:00:45;;;;;;;3.92;1.52;;;;;;;11.51;87.47;102615.63;5060155;28;20036;-50
2021/08/24 02:03:15;;;;;;;3.97;1.73;;;;;;;11.50;87.24;102609.44;5057826;28;20021;-48
2021/08/24 02:05:56;;;;;;;4.85;1.50;;;;;;;11.49;86.64;102615.84;5059390;28;20035;-49
2021/08/24 02:08:26;;;;;;;4.07;1.45;;;;;;;11.46;87.13;102608.19;5058867;28;20025;-49
2021/08/24 02:10:56;;;;;;;4.20;1.40;;;;;;;11.48;87.00;102618.69;5060179;28;20474;-49
2021/08/24 02:13:26;;;;;;;4.85;1.55;;;;;;;11.50;87.11;102622.03;5059426;28;20382;-50
2021/08/24 02:15:55;;;;;;;2.28;1.42;;;;;;;11.50;87.14;102616.66;5057120;28;20032;-49
2021/08/24 02:18:26;;;;;;;3.95;1.52;;;;;;;11.47;87.54;102617.06;5056147;28;20465;-48
2021/08/24 02:21:08;;;;;;;4.45;1.55;;;;;;;11.43;87.67;102610.47;5057201;28;20028;-50
2021/08/24 02:23:34;;;;;;;6.32;1.55;;;;;;;11.44;87.62;102612.94;5058648;28;20028;-48
2021/08/24 02:26:04;;;;;;;4.78;1.70;;;;;;;11.44;87.48;102612.09;5058407;28;20027;-48
2021/08/24 02:28:34;;;;;;;3.58;1.42;;;;;;;11.40;87.86;102616.25;5058519;28;20058;-48
2021/08/24 02:31:12;;;;;;;4.43;1.65;;;;;;;11.39;87.60;102606.56;5059791;28;20032;-48
2021/08/24 02:33:54;;;;;;;4.65;1.75;;;;;;;11.37;87.86;102616.66;5061390;28;20094;-48
2021/08/24 02:36:22;;;;;;;3.20;1.38;;;;;;;11.37;87.91;102617.50;5058456;28;20107;-49
2021/08/24 02:39:12;;;;;;;3.85;1.45;;;;;;;11.36;88.03;102617.69;5060217;28;20056;-47
2021/08/24 02:42:00;;;;;;;4.38;1.30;;;;;;;11.35;88.20;102618.75;5058716;28;20045;-48
2021/08/24 02:44:32;;;;;;;2.40;1.17;;;;;;;11.35;88.80;102618.75;5056238;28;20108;-49
2021/08/24 02:46:58;;;;;;;2.47;1.52;;;;;;;11.34;89.06;102622.47;5056070;28;20111;-48
2021/08/24 02:49:27;;;;;;;3.35;1.30;;;;;;;11.38;88.88;102627.19;5057526;28;20496;-50
2021/08/24 02:51:55;;;;;;;3.70;1.50;;;;;;;11.37;89.22;102628.22;5057374;28;20427;-51
2021/08/24 02:54:31;;;;;;;3.88;1.27;;;;;;;11.37;89.23;102624.72;5057388;28;20058;-49
2021/08/24 02:56:57;;;;;;;1.80;1.17;;;;;;;11.35;89.36;102630.28;5060102;28;20055;-48
2021/08/24 02:59:23;;;;;;;6.03;1.63;;;;;;;11.37;89.48;102627.41;5042697;28;20046;-48
2021/08/24 03:01:49;;;;;;;3.13;1.15;;;;;;;11.37;89.54;102633.59;5059134;28;20029;-48
2021/08/24 03:04:15;;;;;;;3.85;1.25;;;;;;;11.35;89.82;102635.66;5057473;28;20037;-50
2021/08/24 03:06:54;;;;;;;4.60;1.50;;;;;;;11.34;89.49;102631.34;5057512;28;20028;-48
2021/08/24 03:09:22;;;;;;;2.88;1.42;;;;;;;11.35;90.18;102632.16;5057885;28;20492;-48
2021/08/24 03:12:17;;;;;;;3.72;1.38;;;;;;;11.29;90.07;102641.00;5041224;28;20024;-48
2021/08/24 03:14:57;;;;;;;3.75;1.27;;;;;;;11.32;90.08;102637.94;5038937;28;20389;-49
2021/08/24 03:17:42;;;;;;;3.13;1.88;;;;;;;11.32;90.32;102641.44;5056526;28;20031;-48
2021/08/24 03:20:11;;;;;;;3.65;1.40;;;;;;;11.37;91.06;102644.34;5057169;28;20398;-49
2021/08/24 03:22:38;;;;;;;2.50;1.30;;;;;;;11.39;90.71;102636.91;5057842;28;20514;-50
2021/08/24 03:25:06;;;;;;;4.65;1.23;;;;;;;11.41;90.70;102634.00;5058252;28;20075;-48
2021/08/24 03:27:36;;;;;;;3.20;1.33;;;;;;;11.40;90.57;102635.03;5058690;28;20118;-48
2021/08/24 03:30:06;;;;;;;5.00;1.30;;;;;;;11.42;90.53;102641.84;5058774;28;20380;-48
2021/08/24 03:32:32;;;;;;;4.47;1.63;;;;;;;11.37;91.97;102646.19;5040549;28;20060;-49
2021/08/24 03:34:57;;;;;;;3.53;1.40;;;;;;;11.36;91.76;102653.41;5057903;28;20207;-49
2021/08/24 03:37:23;;;;;;;4.10;1.48;;;;;;;11.41;91.18;102644.75;5059264;28;20055;-48
2021/08/24 03:39:48;;;;;;;3.22;1.27;;;;;;;11.39;90.92;102657.53;5059941;28;20359;-48
2021/08/24 03:42:14;;;;;;;4.72;1.40;;;;;;;11.38;91.29;102656.72;5058146;28;20044;-48
2021/08/24 03:44:40;;;;;;;3.38;1.42;;;;;;;11.41;90.81;102656.28;5041328;28;20028;-48
2021/08/24 03:47:05;;;;;;;3.83;1.35;;;;;;;11.43;91.43;102650.72;5058248;28;20562;-48
2021/08/24 03:49:31;;;;;;;5.75;1.20;;;;;;;11.40;91.53;102661.88;5057047;28;20032;-48
2021/08/24 03:51:56;;;;;;;4.00;1.40;;;;;;;11.43;91.32;102661.47;5056560;28;20559;-48
2021/08/24 03:54:21;;;;;;;2.78;1.33;;;;;;;11.44;91.55;102661.25;5056275;28;20486;-49
2021/08/24 03:56:47;;;;;;;2.85;1.20;;;;;;;11.46;91.12;102656.50;5058306;28;20370;-48
2021/08/24 03:59:13;;;;;;;3.42;1.30;;;;;;;11.52;90.60;102659.41;5057986;28;20039;-48
2021/08/24 04:01:38;;;;;;;2.75;1.20;;;;;;;11.48;91.36;102672.38;5055137;28;20032;-48
2021/08/24 04:04:04;;;;;;;2.47;1.17;;;;;;;11.47;91.56;102668.88;5053134;28;20665;-51
2021/08/24 04:06:29;;;;;;;2.63;1.52;;;;;;;11.49;91.19;102674.91;5056773;28;20036;-48
2021/08/24 04:08:55;;;;;;;3.53;1.58;;;;;;;11.54;91.14;102676.13;5057968;28;20450;-48
2021/08/24 04:11:20;;;;;;;3.03;1.23;;;;;;;11.50;91.59;102673.03;5057726;28;20449;-48
2021/08/24 04:13:46;;;;;;;3.70;1.38;;;;;;;11.52;90.94;102681.69;5060490;28;20032;-48
2021/08/24 04:16:13;;;;;;;3.05;1.15;;;;;;;11.56;90.83;102679.44;5057045;28;20028;-48
2021/08/24 04:18:40;;;;;;;4.10;1.45;;;;;;;11.58;91.46;102682.72;5060993;28;20103;-48
2021/08/24 04:21:12;;;;;;;3.83;1.40;;;;;;;11.60;91.11;102686.84;5057056;28;20098;-48
2021/08/24 04:23:38;;;;;;;7.20;1.45;;;;;;;11.62;91.10;102683.94;5059798;28;20037;-48
2021/08/24 04:26:04;;;;;;;4.03;1.50;;;;;;;11.70;90.75;102687.25;5057661;28;20032;-48
2021/08/24 04:28:29;;;;;;;4.22;1.30;;;;;;;11.73;90.87;102684.16;5060207;28;20033;-48
2021/08/24 04:30:56;;;;;;;1.83;1.13;;;;;;;11.84;90.01;102687.25;5063944;28;20548;-48
2021/08/24 04:33:22;;;;;;;2.80;1.20;;;;;;;11.91;89.51;102688.09;5060536;28;20037;-49
2021/08/24 04:35:54;;;;;;;4.25;1.35;;;;;;;11.96;89.25;102683.72;5059940;28;20224;-48
2021/08/24 04:38:20;;;;;;;2.55;1.25;;;;;;;12.02;89.01;102693.63;5054275;28;20013;-51
2021/08/24 04:40:46;;;;;;;3.70;1.48;;;;;;;12.07;88.55;102699.22;5058610;28;20040;-49
2021/08/24 04:43:12;;;;;;;2.55;1.30;;;;;;;12.01;88.93;102699.22;5059107;28;20413;-48
2021/08/24 04:45:38;;;;;;;3.65;1.45;;;;;;;12.04;88.45;102699.66;5064827;28;20048;-49
2021/08/24 04:48:04;;;;;;;2.42;1.25;;;;;;;12.11;88.13;102699.63;5060804;28;20315;-47
2021/08/24 04:50:29;;;;;;;3.92;1.45;;;;;;;12.18;88.14;102703.09;5061272;28;20039;-48
2021/08/24 04:52:55;;;;;;;2.67;1.50;;;;;;;12.28;88.12;102700.81;5060952;28;20020;-48
2021/08/24 04:55:21;;;;;;;3.45;1.67;;;;;;;12.42;87.38;102706.16;5046137;28;20047;-48
2021/08/24 04:57:46;;;;;;;3.15;1.25;;;;;;;12.53;86.93;102703.59;5061098;28;20021;-48
2021/08/24 05:00:13;;;;;;;4.28;1.83;;;;;;;12.67;86.18;102704.38;5057958;28;20411;-48
2021/08/24 05:02:38;;;;;;;2.35;1.40;;;;;;;12.75;86.04;102714.03;5044187;28;20390;-48
2021/08/24 05:05:04;;;;;;;3.28;1.17;;;;;;;12.78;86.05;102711.78;5061043;28;20025;-49
2021/08/24 05:07:30;;;;;;;2.92;1.50;;;;;;;12.94;85.23;102705.91;5060466;28;20037;-48
2021/08/24 05:09:56;;;;;;;3.70;1.60;;;;;;;13.01;85.13;102708.53;5062559;28;20023;-49
2021/08/24 05:12:21;;;;;;;3.25;1.52;;;;;;;13.14;84.60;102705.75;5042363;28;20052;-48
2021/08/24 05:14:47;;;;;;;4.35;1.55;;;;;;;13.26;84.03;102703.22;5055358;28;20051;-48
2021/08/24 05:17:12;;;;;;;3.90;1.27;;;;;;;13.37;83.87;102707.09;5059827;28;20032;-48
2021/08/24 05:19:38;;;;;;;2.35;1.23;;;;;;;13.51;83.21;102706.75;5056823;28;20021;-49
2021/08/24 05:22:03;;;;;;;2.50;1.55;;;;;;;13.71;82.47;102708.47;5058147;28;20413;-49
2021/08/24 05:24:29;;;;;;;2.17;1.33;;;;;;;13.84;81.82;102714.56;5060325;28;20039;-49
2021/08/24 05:26:55;;;;;;;3.67;1.35;;;;;;;13.98;81.48;102717.09;5058290;28;20074;-48
2021/08/24 05:29:20;;;;;;;2.88;1.20;;;;;;;14.09;81.03;102722.59;5059339;28;20456;-48
2021/08/24 05:31:46;;;;;;;2.05;1.33;;;;;;;14.23;80.28;102717.06;5062718;28;20036;-49
2021/08/24 05:34:12;;;;;;;3.17;1.20;;;;;;;14.32;79.70;102716.53;5062178;28;20062;-48
2021/08/24 05:36:37;;;;;;;3.42;1.52;;;;;;;14.42;78.94;102724.91;5044998;28;20086;-49
2021/08/24 05:39:03;;;;;;;2.80;1.35;;;;;;;14.45;79.05;102718.28;5060608;28;20051;-48
2021/08/24 05:41:30;;;;;;;3.53;1.52;;;;;;;14.52;78.80;102719.81;5062584;28;20402;-48
2021/08/24 05:43:55;;;;;;;7.88;2.03;;;;;;;14.68;78.53;102722.97;5060057;28;20123;-47
2021/08/24 05:46:21;;;;;;;4.93;1.40;;;;;;;14.81;77.93;102720.91;5062776;28;20167;-48
2021/08/24 05:48:46;;;;;;;2.40;1.45;;;;;;;14.89;77.55;102718.94;5062511;28;20469;-49
2021/08/24 05:51:16;;;;;;;2.85;1.27;;;;;;;14.99;77.32;102714.66;5061449;28;20054;-48
2021/08/24 05:53:41;;;;;;;3.78;1.50;;;;;;;15.15;77.14;102712.34;5062475;28;20048;-48
2021/08/24 05:56:12;;;;;;;2.15;1.65;;;;;;;15.26;76.25;102716.94;5060877;28;20074;-49
2021/08/24 05:58:38;;;;;;;2.83;1.50;;;;;;;15.39;75.94;102732.94;5061088;28;20389;-48
2021/08/24 06:01:05;;;;;;;2.42;1.30;;;;;;;15.53;75.48;102731.69;5062916;28;20029;-49
2021/08/24 06:03:31;;;;;;;1.38;1.05;;;;;;;15.68;74.60;102740.19;5059953;28;20032;-48
2021/08/24 06:05:58;;;;;;;3.75;1.55;;;;;;;15.78;74.05;102738.78;5061333;28;20083;-48
2021/08/24 06:08:24;;;;;;;3.05;1.35;;;;;;;15.89;73.46;102738.78;5060944;28;20371;-48
2021/08/24 06:10:49;;;;;;;4.32;1.30;;;;;;;16.00;73.16;102742.56;5060784;28;20029;-50
2021/08/24 06:13:15;;;;;;;3.55;1.63;;;;;;;16.06;73.01;102746.19;5060725;28;20027;-49
2021/08/24 06:15:41;;;;;;;5.28;1.58;;;;;;;16.19;72.71;102749.50;5069406;28;20105;-49
2021/08/24 06:18:06;;;;;;;2.65;1.33;;;;;;;16.25;72.31;102740.41;5058912;28;20024;-50
2021/08/24 06:20:32;;;;;;;3.60;1.67;;;;;;;16.29;70.77;102751.56;5042661;28;20032;-49
2021/08/24 06:22:57;;;;;;;3.47;1.52;;;;;;;16.45;70.95;102750.03;5057755;28;20137;-52
2021/08/24 06:25:23;;;;;;;3.60;1.35;;;;;;;16.54;70.84;102757.53;5060933;28;20199;-50
2021/08/24 06:27:50;;;;;;;3.97;1.70;;;;;;;16.64;69.83;102756.91;5054938;28;20538;-51
2021/08/24 06:30:16;;;;;;;4.10;1.45;;;;;;;16.75;69.36;102756.09;5060784;28;20024;-49
2021/08/24 06:32:46;;;;;;;3.25;1.25;;;;;;;16.75;69.47;102763.41;5060215;28;20035;-51
2021/08/24 06:35:12;;;;;;;2.53;1.30;;;;;;;16.93;68.86;102757.78;5060876;28;20143;-50
2021/08/24 06:37:38;;;;;;;3.05;1.20;;;;;;;17.03;68.23;102763.38;5048225;28;20028;-49
2021/08/24 06:40:05;;;;;;;4.65;1.50;;;;;;;17.09;67.94;102769.75;5059231;28;20462;-49
2021/08/24 06:42:39;;;;;;;3.15;1.70;;;;;;;17.19;67.07;102762.59;5060007;28;20028;-50
2021/08/24 06:45:05;;;;;;;3.78;1.92;;;;;;;17.35;66.97;102769.13;5058768;28;20032;-52
2021/08/24 06:47:31;;;;;;;3.90;1.70;;;;;;;17.57;66.42;102763.78;5049583;28;20490;-49
2021/08/24 06:49:56;;;;;;;3.92;1.75;;;;;;;17.70;66.62;102768.94;5058509;28;20025;-48
2021/08/24 06:52:22;;;;;;;2.65;1.50;;;;;;;17.75;65.40;102763.59;5060120;28;20458;-50
2021/08/24 06:54:47;;;;;;;3.05;1.55;;;;;;;17.78;64.56;102767.72;5057275;28;20186;-49
2021/08/24 06:57:12;;;;;;;3.67;1.55;;;;;;;17.80;64.13;102766.41;5058432;28;20097;-49
2021/08/24 06:59:39;;;;;;;3.72;1.40;;;;;;;17.63;63.52;102765.53;5057108;28;20021;-49
2021/08/24 07:02:06;;;;;;;2.55;1.40;;;;;;;17.89;63.51;102771.38;5060435;28;20037;-48
2021/08/24 07:04:34;;;;;;;2.10;1.30;;;;;;;17.95;62.59;102773.09;5060045;28;20155;-49
2021/08/24 07:06:59;;;;;;;6.60;1.88;;;;;;;17.97;62.58;102774.50;5060107;28;20036;-49
2021/08/24 07:09:25;;;;;;;2.67;1.70;;;;;;;18.00;62.47;102774.00;5060349;28;20024;-52
2021/08/24 07:11:50;;;;;;;3.05;1.25;;;;;;;18.27;61.74;102776.81;5041478;28;20623;-52
2021/08/24 07:14:16;;;;;;;2.90;1.38;;;;;;;18.39;62.47;102774.84;5061363;28;20111;-49
2021/08/24 07:16:43;;;;;;;2.60;1.40;;;;;;;18.46;60.34;102780.06;5059544;28;20107;-51
2021/08/24 07:19:08;;;;;;;10.85;2.00;;;;;;;18.54;60.48;102774.22;5060762;28;20260;-51
2021/08/24 07:21:34;;;;;;;4.75;1.50;;;;;;;18.60;60.24;102784.06;5060263;28;20066;-52
2021/08/24 07:24:00;;;;;;;2.72;1.38;;;;;;;18.80;59.80;102778.06;5058762;28;20028;-50
2021/08/24 07:26:25;;;;;;;4.38;1.90;;;;;;;18.92;59.14;102781.47;5058976;28;20470;-51
2021/08/24 07:28:51;;;;;;;5.13;1.70;;;;;;;19.05;59.31;102779.44;5057723;28;20036;-51
2021/08/24 07:31:17;;;;;;;4.00;1.50;;;;;;;19.19;58.39;102781.47;5059672;28;20442;-50
2021/08/24 07:33:43;;;;;;;3.50;1.50;;;;;;;19.19;57.81;102775.22;5057389;28;20078;-49
2021/08/24 07:36:08;;;;;;;1.88;1.25;;;;;;;19.28;57.77;102776.41;5057445;28;20028;-52
2021/08/24 07:38:34;;;;;;;2.85;1.35;;;;;;;19.32;57.12;102775.63;5057073;28;20070;-52
2021/08/24 07:41:00;;;;;;;2.35;1.30;;;;;;;19.48;57.84;102773.06;5058445;28;20024;-50
2021/08/24 07:43:25;;;;;;;3.25;1.58;;;;;;;19.73;57.33;102772.47;5057180;28;20029;-50
2021/08/24 07:45:51;;;;;;;3.95;1.50;;;;;;;20.07;57.24;102776.50;5036935;28;20024;-50
2021/08/24 07:48:17;;;;;;;3.63;1.92;;;;;;;20.05;56.12;102786.03;5061075;28;20520;-52
2021/08/24 07:50:43;;;;;;;3.90;1.65;;;;;;;20.17;54.90;102778.50;5056354;28;20389;-51
2021/08/24 07:53:09;;;;;;;2.50;1.80;;;;;;;20.18;54.88;102789.13;5055320;28;20035;-50
2021/08/24 07:55:35;;;;;;;3.22;1.83;;;;;;;20.08;54.37;102782.78;5054442;28;20029;-52
2021/08/24 07:58:02;;;;;;;3.25;1.50;;;;;;;20.01;54.45;102785.75;5055552;28;20029;-51
2021/08/24 08:00:27;;;;;;;3.05;2.10;;;;;;;20.03;54.20;102786.28;5054524;28;20029;-51
2021/08/24 08:02:53;;;;;;;4.65;1.67;;;;;;;20.08;53.02;102785.50;5055171;28;20450;-52
2021/08/24 08:05:19;;;;;;;4.68;1.95;;;;;;;20.02;51.75;102778.41;5062124;28;20032;-52
2021/08/24 08:07:45;;;;;;;3.47;1.67;;;;;;;20.12;52.56;102781.19;5060494;28;20366;-50
2021/08/24 08:10:12;;;;;;;6.38;2.15;;;;;;;20.41;52.54;102787.09;5061821;28;20094;-53
2021/08/24 08:12:37;;;;;;;7.60;2.00;;;;;;;20.55;51.45;102787.44;5057479;28;20103;-51
2021/08/24 08:15:06;;;;;;;6.72;1.88;;;;;;;20.67;51.71;102783.41;5060389;28;20032;-52
2021/08/24 08:17:31;;;;;;;3.55;1.88;;;;;;;20.68;51.78;102787.75;5058557;28;20032;-52
2021/08/24 08:19:56;;;;;;;2.80;1.50;;;;;;;20.67;49.72;102788.03;5061027;28;20425;-51
2021/08/24 08:22:22;;;;;;;5.10;2.00;;;;;;;20.93;49.41;102788.91;5060999;28;20039;-51
2021/08/24 08:24:48;;;;;;;4.22;1.63;;;;;;;21.08;48.50;102781.59;5060331;28;20032;-52
2021/08/24 08:27:14;;;;;;;5.18;1.92;;;;;;;21.15;49.58;102786.78;5061041;28;20409;-51
2021/08/24 08:29:39;;;;;;;5.80;2.22;;;;;;;21.28;49.28;102791.75;5060781;28;20028;-51
2021/08/24 08:32:10;;;;;;;4.85;1.73;;;;;;;21.49;49.84;102791.75;5075310;28;20067;-50
2021/08/24 08:34:36;;;;;;;3.30;1.77;;;;;;;21.44;47.66;102792.59;5059079;28;20024;-52
2021/08/24 08:37:02;;;;;;;3.70;2.00;;;;;;;21.24;48.46;102800.72;5057903;28;20035;-51
2021/08/24 08:39:28;;;;;;;3.95;1.60;;;;;;;21.49;48.54;102789.84;5062939;28;20028;-52
2021/08/24 08:42:21;;;;;;;3.33;1.88;;;;;;;21.42;46.58;102798.31;5041172;28;20048;-52
2021/08/24 08:44:52;;;;;;;5.80;2.20;;;;;;;21.52;47.40;102796.66;5058756;28;20041;-49
2021/08/24 08:47:17;;;;;;;3.08;1.92;;;;;;;21.55;47.24;102799.69;5057911;28;20027;-51
2021/08/24 08:50:02;;;;;;;4.45;2.33;;;;;;;21.66;46.78;102795.84;5060886;28;20383;-52
2021/08/24 08:52:49;;;;;;;2.53;1.70;;;;;;;21.77;47.46;102795.88;5075704;28;20040;-52
2021/08/24 08:55:51;;;;;;;3.10;1.88;;;;;;;22.01;47.10;102789.56;5064071;28;22004;-51
2021/08/24 08:58:51;;;;;;;4.82;2.58;;;;;;;21.88;45.78;102803.75;5061317;28;20028;-49
2021/08/24 09:01:39;;;;;;;3.60;2.30;;;;;;;21.80;44.98;102804.31;5064654;28;20040;-49
2021/08/24 09:04:15;;;;;;;4.57;2.17;;;;;;;21.72;45.71;102804.84;5061628;28;20024;-51
2021/08/24 09:06:43;;;;;;;2.97;1.80;;;;;;;22.19;45.70;102809.19;5061768;28;20016;-49
2021/08/24 09:09:09;;;;;;;6.63;2.00;;;;;;;22.42;45.69;102805.03;5060869;28;20063;-49
2021/08/24 09:11:40;;;;;;;4.63;1.85;;;;;;;22.38;45.63;102802.03;5061787;28;20078;-52
2021/08/24 09:14:17;;;;;;;5.32;2.53;;;;;;;22.56;44.22;102809.63;5062485;28;20039;-49
2021/08/24 09:16:54;;;;;;;3.85;1.80;;;;;;;22.63;46.12;102805.81;5062413;28;20111;-51
2021/08/24 09:19:26;;;;;;;4.03;2.10;;;;;;;22.65;45.32;102798.13;5064216;28;20031;-49
2021/08/24 09:21:52;;;;;;;7.45;2.00;;;;;;;22.21;45.12;102807.00;5061002;28;20044;-50
2021/08/24 09:24:23;;;;;;;5.43;2.22;;;;;;;21.94;45.44;102810.03;5063110;28;20112;-49
2021/08/24 09:27:01;;;;;;;4.10;2.13;;;;;;;22.30;45.17;102808.91;5060676;28;20027;-50
2021/08/24 09:29:33;;;;;;;6.95;2.53;;;;;;;22.32;45.02;102805.91;5059833;28;20036;-50
2021/08/24 09:32:00;;;;;;;3.85;1.90;;;;;;;22.21;45.23;102801.56;5065209;28;20017;-49
2021/08/24 09:34:28;;;;;;;3.35;1.90;;;;;;;22.01;46.22;102800.47;5044431;28;20141;-52
2021/08/24 09:36:54;;;;;;;2.97;1.75;;;;;;;21.91;46.05;102805.97;5061631;28;20033;-49
2021/08/24 09:39:53;;;;;;;4.95;2.00;;;;;;;22.15;44.84;102800.75;5063898;28;20035;-48
2021/08/24 09:42:46;;;;;;;4.28;2.03;;;;;;;21.74;43.76;102805.44;5061366;28;20474;-49
2021/08/24 09:45:20;;;;;;;3.78;2.45;;;;;;;22.54;42.69;102798.16;5060935;28;20044;-51
2021/08/24 09:47:52;;;;;;;;;;;;;;;22.97;44.28;102800.44;5061001;28;20032;-51
2021/08/24 09:50:30;;;;;;;4.38;2.35;;;;;;;23.37;43.33;102804.84;5062447;28;20311;-49
2021/08/24 09:52:56;;;;;;;4.30;2.13;;;;;;;23.68;43.07;102797.22;5058012;28;20024;-49
2021/08/24 09:55:28;;;;;;;4.55;1.83;;;;;;;23.84;43.34;102792.44;5046933;28;20021;-49
2021/08/24 09:58:04;;;;;;;4.88;2.35;;;;;;;23.92;41.88;102794.56;5060063;28;20032;-52
2021/08/24 10:00:39;;;;;;;4.63;2.03;;;;;;;24.09;41.69;102795.75;5058870;28;20029;-49
2021/08/24 10:03:31;;;;;;;3.20;2.17;;;;;;;23.87;40.66;102789.94;5061325;28;20028;-48
2021/08/24 10:06:11;;;;;;;4.20;2.03;;;;;;;23.67;40.59;102803.81;5058781;28;20477;-49
2021/08/24 10:08:37;;;;;;;4.20;2.20;;;;;;;23.76;39.61;102800.19;5059603;28;20033;-49
2021/08/24 10:11:31;;;;;;;3.35;1.90;;;;;;;23.95;41.17;102797.53;5060337;28;20385;-49
2021/08/24 10:14:08;;;;;;;4.15;1.95;;;;;;;24.12;40.37;102797.09;5058798;28;20028;-49
2021/08/24 10:16:34;;;;;;;4.88;2.00;;;;;;;24.16;40.33;102798.13;5061017;28;20291;-51
2021/08/24 10:19:18;;;;;;;3.28;1.65;;;;;;;24.36;39.64;102795.19;5059360;28;20055;-51
2021/08/24 10:21:54;;;;;;;4.93;1.92;;;;;;;24.41;37.95;102786.91;5057916;28;20486;-51
2021/08/24 10:24:54;;;;;;;3.92;2.10;;;;;;;24.03;38.58;102796.06;5059331;28;20086;-50
2021/08/24 10:27:28;;;;;;;3.95;2.00;;;;;;;23.96;39.51;102784.66;5061072;28;20482;-49
2021/08/24 10:29:57;;;;;;;5.60;2.47;;;;;;;24.17;39.15;102779.78;5058629;28;20044;-49
2021/08/24 10:32:30;;;;;;;3.20;2.00;;;;;;;24.54;39.00;102779.91;5058440;28;20060;-49
2021/08/24 10:34:59;;;;;;;4.43;2.40;;;;;;;24.56;38.14;102783.16;5060031;28;20032;-49
2021/08/24 10:37:25;;;;;;;3.83;2.20;;;;;;;24.82;37.88;102780.09;5062381;28;20025;-49
2021/08/24 10:40:13;;;;;;;3.70;1.70;;;;;;;24.52;37.13;102789.53;5058857;28;20784;-49
2021/08/24 10:42:41;;;;;;;4.55;1.80;;;;;;;24.55;37.19;102786.19;5058031;28;20142;-51
2021/08/24 10:45:21;;;;;;;3.75;2.33;;;;;;;24.92;37.70;102775.28;5059096;28;20043;-51
2021/08/24 10:47:53;;;;;;;4.20;2.47;;;;;;;24.64;36.23;102781.72;5059359;28;20032;-52
2021/08/24 10:50:23;;;;;;;5.45;2.20;;;;;;;24.75;37.36;102772.22;5055229;28;20040;-51
2021/08/24 10:53:12;;;;;;;4.63;1.90;;;;;;;24.59;35.67;102770.81;5052859;28;20378;-51
2021/08/24 10:55:49;;;;;;;3.03;1.70;;;;;;;24.96;36.43;102764.56;5060255;28;20070;-49
2021/08/24 10:58:15;;;;;;;3.20;2.08;;;;;;;24.93;35.86;102776.09;5062031;28;20388;-49
2021/08/24 11:01:04;;;;;;;5.18;1.98;;;;;;;25.00;36.32;102780.13;5062795;28;20036;-49
2021/08/24 11:03:57;;;;;;;4.72;2.17;;;;;;;24.46;36.39;102760.56;5060474;28;20401;-49
2021/08/24 11:06:26;;;;;;;4.13;2.13;;;;;;;24.65;36.34;102766.91;5045791;28;20070;-50
2021/08/24 11:09:16;;;;;;;5.22;2.25;;;;;;;24.69;37.19;102751.50;5062504;28;20017;-50
2021/08/24 11:11:42;;;;;;;5.03;2.72;;;;;;;25.02;37.10;102759.81;5062467;28;20032;-48
2021/08/24 11:14:20;;;;;;;4.47;2.55;;;;;;;25.37;35.86;102763.94;5058293;28;20029;-50
2021/08/24 11:17:13;;;;;;;4.43;2.78;;;;;;;24.91;34.59;102759.13;5061563;28;20016;-49
2021/08/24 11:20:00;;;;;;;5.55;2.20;;;;;;;25.11;35.46;102764.31;5060321;28;20024;-51
2021/08/24 11:22:30;;;;;;;4.25;2.72;;;;;;;25.39;36.25;102761.72;5061313;28;20024;-49
2021/08/24 11:25:05;;;;;;;4.80;2.50;;;;;;;25.63;36.75;102753.34;5058776;28;20516;-50
2021/08/24 11:27:44;;;;;;;4.72;2.92;;;;;;;25.74;35.16;102755.63;5062422;28;20024;-49
2021/08/24 11:30:17;;;;;;;4.35;2.67;;;;;;;25.89;34.26;102747.13;5055533;28;20378;-49
2021/08/24 11:32:47;;;;;;;3.75;2.50;;;;;;;25.76;35.05;102755.31;5051655;28;20064;-50
2021/08/24 11:35:18;;;;;;;6.45;2.63;;;;;;;25.86;35.06;102738.69;5048421;28;20036;-50
2021/08/24 11:37:49;;;;;;;5.22;2.50;;;;;;;26.16;35.37;102738.06;5052462;28;20031;-49
2021/08/24 11:40:24;;;;;;;4.30;2.47;;;;;;;26.13;35.73;102746.09;5047401;28;20431;-51
2021/08/24 11:42:54;;;;;;;8.48;2.35;;;;;;;25.47;35.86;102759.06;5058631;28;20028;-52